Shebandowan, Canada
Current Conditions -  °F | °C
As of 9:00 PM on Monday 20 Oct 2014 (Local Time) from CYQT Reporting Station
Broken Clouds Broken Clouds  
Wind Chill: 36°   Ceiling: 2100
Heat Index: 36°   Visibility: 15mi
Dew Point: 34°   Wind: 2mph
Humidity: 93%   Direction: 300°WNW
Pressure: 30.14"   Gusts: NA
Location:  48.63°N, 90.07°W
Report Text: CYQT 210200Z 30002KT 15SM BKN021 02/01 A3014 RMK SC7 SLP213
Loading
Personal Weather Stations






























Interactive Weather Map
Tropical Storm Tracking
New forecast layout! Learn more

10-Day Weather Forecast

Advertisements
Track Severe Weather on mobile